Time;durP1;ratioP1;P1;durP2;ratioP2;P2;SDS_P1;SDS_P2;PMS_P1;PMS_P2;Temp;Humidity;BMP_temperature;BMP_pressure;BME280_temperature;BME280_humidity;BME280_pressure;Samples;Min_cycle;Max_cycle;Signal;HPM_P1;HPM_P2
2023/11/01 00:00:35;;;;;;;5.00;2.40;;;;;;;12.25;100.00;99376.60;110633;1251;23063;-81
2023/11/01 00:03:34;;;;;;;5.00;2.70;;;;;;;12.21;100.00;99384.31;110626;1265;21952;-82
2023/11/01 00:06:28;;;;;;;3.80;2.90;;;;;;;12.20;100.00;99385.30;110059;1265;24310;-80
2023/11/01 00:09:06;;;;;;;7.00;2.60;;;;;;;12.16;100.00;99388.80;110315;1265;23701;-80
2023/11/01 00:11:58;;;;;;;5.50;3.10;;;;;;;12.12;100.00;99389.77;109558;1272;22052;-81
2023/11/01 00:14:50;;;;;;;10.30;4.00;;;;;;;12.09;100.00;99392.05;107151;1272;22009;-80
2023/11/01 00:17:44;;;;;;;5.20;3.10;;;;;;;12.07;100.00;99394.27;110512;1267;22302;-80
2023/11/01 00:20:42;;;;;;;5.20;3.50;;;;;;;12.04;100.00;99397.42;110403;1267;22004;-81
2023/11/01 00:23:19;;;;;;;4.30;2.80;;;;;;;12.02;100.00;99400.16;110355;1266;21967;-81
2023/11/01 00:26:27;;;;;;;4.00;2.70;;;;;;;11.97;100.00;99401.10;110326;1267;23823;-81
2023/11/01 00:29:20;;;;;;;4.50;2.90;;;;;;;11.93;100.00;99401.16;110742;1257;21980;-80
2023/11/01 00:32:31;;;;;;;3.70;2.80;;;;;;;11.89;100.00;99407.48;111099;1257;23586;-79
2023/11/01 00:35:18;;;;;;;4.00;2.60;;;;;;;11.86;100.00;99408.18;111068;1257;22040;-80
2023/11/01 00:38:27;;;;;;;4.50;3.10;;;;;;;11.82;100.00;99408.74;111064;1257;22967;-80
2023/11/01 00:41:12;;;;;;;6.00;5.40;;;;;;;11.79;100.00;99414.33;111302;1257;21994;-79
2023/11/01 00:44:27;;;;;;;4.90;2.50;;;;;;;11.75;100.00;99414.39;111167;1257;22158;-79
2023/11/01 00:47:15;;;;;;;4.20;3.50;;;;;;;11.71;100.00;99417.04;111175;1244;21982;-80
2023/11/01 00:50:00;;;;;;;4.80;2.80;;;;;;;11.69;100.00;99420.11;111264;1257;21966;-78
2023/11/01 00:53:12;;;;;;;6.80;3.40;;;;;;;11.65;100.00;99419.46;111284;1257;22418;-82
2023/11/01 00:55:59;;;;;;;4.40;2.90;;;;;;;11.63;100.00;99425.20;111439;1257;23686;-81
2023/11/01 00:58:49;;;;;;;5.40;2.70;;;;;;;11.64;100.00;99430.17;111210;1257;21969;-80
2023/11/01 01:01:38;;;;;;;5.40;3.10;;;;;;;11.64;100.00;99432.11;110573;1262;23076;-81
2023/11/01 01:04:18;;;;;;;3.70;2.40;;;;;;;11.63;100.00;99436.88;110819;1262;22645;-81
2023/11/01 01:07:29;;;;;;;3.30;2.60;;;;;;;11.62;100.00;99444.75;110212;1267;22010;-82
2023/11/01 01:10:23;;;;;;;4.60;3.10;;;;;;;11.60;100.00;99445.77;110242;1268;22087;-79
2023/11/01 01:13:18;;;;;;;3.50;2.60;;;;;;;11.58;100.00;99444.65;110291;1267;22057;-80
2023/11/01 01:16:03;;;;;;;3.90;3.20;;;;;;;11.55;100.00;99443.06;110385;1268;22014;-80
2023/11/01 01:18:45;;;;;;;3.50;3.20;;;;;;;11.53;100.00;99445.75;109587;1270;23705;-80
2023/11/01 01:21:29;;;;;;;3.30;2.60;;;;;;;11.53;100.00;99445.58;110022;1269;22045;-80
2023/11/01 01:24:28;;;;;;;4.30;2.50;;;;;;;11.53;100.00;99449.78;110085;1263;21995;-79
2023/11/01 01:27:21;;;;;;;4.40;2.60;;;;;;;11.51;100.00;99447.99;110849;1262;22241;-79
2023/11/01 01:30:18;;;;;;;3.30;2.70;;;;;;;11.46;100.00;99453.14;110033;1264;21966;-78
2023/11/01 01:33:02;;;;;;;4.50;2.90;;;;;;;11.44;100.00;99457.93;109443;1271;21984;-79
2023/11/01 01:36:03;;;;;;;5.60;3.10;;;;;;;11.43;100.00;99460.61;110029;1263;21978;-78
2023/11/01 01:39:01;;;;;;;3.30;2.50;;;;;;;11.42;100.00;99458.23;109650;1270;22996;-80
2023/11/01 01:41:52;;;;;;;3.00;2.70;;;;;;;11.41;100.00;99458.45;110050;1265;23753;-81
2023/11/01 01:44:51;;;;;;;4.60;2.90;;;;;;;11.38;100.00;99459.87;110042;1270;21985;-81
2023/11/01 01:47:32;;;;;;;3.70;3.10;;;;;;;11.38;100.00;99462.67;109674;1265;22045;-80
2023/11/01 01:53:59;;;;;;;2.90;2.60;;;;;;;11.30;100.00;99470.19;109136;1277;22015;-79
2023/11/01 01:56:49;;;;;;;5.90;3.60;;;;;;;11.25;100.00;99473.42;109180;1267;21984;-80
2023/11/01 01:59:33;;;;;;;3.70;3.10;;;;;;;11.23;100.00;99471.13;110403;1266;22053;-81
2023/11/01 02:02:11;;;;;;;4.00;3.10;;;;;;;11.21;100.00;99474.72;110042;1262;23028;-81
2023/11/01 02:04:49;;;;;;;4.50;3.20;;;;;;;11.19;100.00;99482.64;109614;1268;22003;-80
2023/11/01 02:07:26;;;;;;;5.00;2.80;;;;;;;11.15;100.00;99488.24;109991;1267;21919;-81
2023/11/01 02:10:15;;;;;;;3.40;2.80;;;;;;;11.11;100.00;99491.81;109584;1267;21998;-81
2023/11/01 02:13:10;;;;;;;4.30;3.40;;;;;;;11.06;100.00;99496.77;109603;1272;21989;-81
2023/11/01 02:15:49;;;;;;;3.70;3.00;;;;;;;11.04;100.00;99502.98;109498;1261;23040;-80
2023/11/01 02:18:26;;;;;;;4.70;3.00;;;;;;;10.99;100.00;99507.21;109576;1271;21969;-80
2023/11/01 02:21:22;;;;;;;4.30;3.20;;;;;;;10.95;100.00;99508.65;109650;1272;21984;-81
2023/11/01 02:24:10;;;;;;;3.40;3.10;;;;;;;10.92;100.00;99509.14;110177;1266;21977;-81
2023/11/01 02:26:52;;;;;;;5.30;4.00;;;;;;;10.75;100.00;99495.26;109439;1268;23065;-79
2023/11/01 02:29:36;;;;;;;4.10;3.20;;;;;;;10.81;100.00;99513.73;109675;1268;23042;-81
2023/11/01 02:32:31;;;;;;;3.60;3.00;;;;;;;10.75;100.00;99518.05;110168;1267;22395;-81
2023/11/01 02:35:26;;;;;;;3.20;2.70;;;;;;;10.73;100.00;99519.02;110664;1262;21970;-81
2023/11/01 02:38:12;;;;;;;3.90;2.60;;;;;;;10.69;100.00;99522.85;109946;1269;23035;-81
2023/11/01 02:40:57;;;;;;;5.10;3.00;;;;;;;10.67;100.00;99523.16;109179;1275;21992;-82
2023/11/01 02:44:17;;;;;;;5.50;2.70;;;;;;;10.61;100.00;99522.26;109463;1270;21981;-81
2023/11/01 02:47:10;;;;;;;3.50;2.70;;;;;;;10.59;100.00;99523.92;109813;1270;21982;-80
2023/11/01 02:49:51;;;;;;;3.10;2.80;;;;;;;10.59;100.00;99524.95;109625;1269;21955;-82
2023/11/01 02:52:34;;;;;;;2.70;2.50;;;;;;;10.59;100.00;99532.12;110010;1270;22001;-81
2023/11/01 02:55:35;;;;;;;3.10;2.40;;;;;;;10.55;100.00;99532.79;110105;1264;24515;-80
2023/11/01 02:58:23;;;;;;;3.60;2.50;;;;;;;10.51;100.00;99533.55;110530;1257;22484;-81
2023/11/01 03:01:00;;;;;;;3.20;2.70;;;;;;;10.48;100.00;99531.95;111115;1256;21958;-80
2023/11/01 03:03:33;;;;;;;4.50;2.80;;;;;;;10.46;100.00;99531.73;110856;1263;22070;-79
2023/11/01 03:06:15;;;;;;;3.40;2.60;;;;;;;10.42;100.00;99534.51;110232;1268;23084;-81
2023/11/01 03:09:11;;;;;;;3.90;2.90;;;;;;;10.38;100.00;99535.60;109722;1272;22754;-78
2023/11/01 03:11:47;;;;;;;7.10;2.60;;;;;;;10.34;100.00;99536.66;109564;1272;21988;-79
2023/11/01 03:14:32;;;;;;;4.80;3.30;;;;;;;10.30;100.00;99536.81;109444;1272;22014;-79
2023/11/01 03:17:09;;;;;;;4.30;3.50;;;;;;;10.26;100.00;99537.88;109745;1267;24024;-78
2023/11/01 03:20:03;;;;;;;6.30;4.10;;;;;;;10.24;100.00;99545.13;109825;1272;21990;-77
2023/11/01 03:22:46;;;;;;;4.60;3.20;;;;;;;10.22;100.00;99547.66;109581;1272;22035;-79
2023/11/01 03:25:37;;;;;;;4.20;3.20;;;;;;;10.18;100.00;99545.60;109440;1273;21982;-80
2023/11/01 03:28:35;;;;;;;5.00;3.00;;;;;;;10.15;100.00;99548.86;109916;1269;22730;-79
2023/11/01 03:31:25;;;;;;;3.70;2.70;;;;;;;10.12;100.00;99550.40;109894;1270;22009;-79
2023/11/01 03:34:26;;;;;;;3.90;2.80;;;;;;;10.09;100.00;99551.08;109607;1274;21961;-80
2023/11/01 03:37:18;;;;;;;3.70;2.70;;;;;;;10.06;100.00;99559.04;109602;1273;24096;-81
2023/11/01 03:40:11;;;;;;;3.90;2.30;;;;;;;10.05;100.00;99564.43;109629;1268;23017;-81
2023/11/01 03:42:56;;;;;;;3.20;2.40;;;;;;;10.09;100.00;99562.52;109804;1265;21982;-80
2023/11/01 03:45:54;;;;;;;3.20;2.50;;;;;;;10.11;100.00;99566.11;109765;1269;22050;-77
2023/11/01 03:48:53;;;;;;;3.20;2.20;;;;;;;10.14;100.00;99567.31;109697;1269;22008;-80
2023/11/01 03:51:46;;;;;;;4.50;2.50;;;;;;;10.17;100.00;99568.92;110022;1265;21986;-80
2023/11/01 03:54:33;;;;;;;5.60;2.10;;;;;;;10.21;100.00;99568.54;110371;1265;22644;-79
2023/11/01 03:57:17;;;;;;;6.10;2.10;;;;;;;10.26;100.00;99572.84;110588;1260;22008;-80
2023/11/01 04:00:20;;;;;;;6.90;2.30;;;;;;;10.27;100.00;99578.90;109815;1266;22004;-78
2023/11/01 04:03:03;;;;;;;5.20;2.20;;;;;;;10.26;100.00;99577.87;109948;1270;22991;-78
2023/11/01 04:05:55;;;;;;;3.10;1.80;;;;;;;10.25;100.00;99583.13;109432;1268;21973;-78
2023/11/01 04:08:55;;;;;;;5.50;1.90;;;;;;;10.24;100.00;99583.38;108728;1276;22034;-79
2023/11/01 04:11:44;;;;;;;3.30;2.10;;;;;;;10.22;100.00;99574.61;108683;1284;22063;-81
2023/11/01 04:14:40;;;;;;;4.70;1.90;;;;;;;10.28;100.00;99590.99;108626;1281;21990;-81
2023/11/01 04:18:15;;;;;;;4.80;2.20;;;;;;;10.29;100.00;99593.56;108971;1272;21985;-80
2023/11/01 04:20:56;;;;;;;2.40;1.90;;;;;;;10.29;100.00;99597.58;109588;1272;22006;-78
2023/11/01 04:23:34;;;;;;;2.30;1.50;;;;;;;10.31;100.00;99603.39;109141;1274;21996;-81
2023/11/01 04:26:24;;;;;;;2.30;1.60;;;;;;;10.33;100.00;99603.80;109510;1269;23724;-79
2023/11/01 04:28:59;;;;;;;2.60;1.60;;;;;;;10.38;100.00;99604.47;109953;1269;22035;-81
2023/11/01 04:31:43;;;;;;;1.50;1.20;;;;;;;10.39;100.00;99611.36;110653;1265;23695;-80
2023/11/01 04:34:24;;;;;;;4.70;1.30;;;;;;;10.42;100.00;99611.24;110192;1265;21983;-80
2023/11/01 04:37:15;;;;;;;1.80;1.40;;;;;;;10.41;100.00;99611.61;110523;1262;23739;-82
2023/11/01 04:40:23;;;;;;;3.60;1.70;;;;;;;10.42;100.00;99609.31;110232;1269;21978;-81
2023/11/01 04:43:07;;;;;;;2.40;1.30;;;;;;;10.42;100.00;99615.73;109485;1274;21989;-80
2023/11/01 04:45:54;;;;;;;2.20;1.30;;;;;;;10.41;100.00;99616.84;109833;1269;22038;-79
2023/11/01 04:48:50;;;;;;;3.20;2.50;;;;;;;10.40;100.00;99619.83;109616;1272;23755;-80
2023/11/01 04:51:32;;;;;;;3.80;1.70;;;;;;;10.41;100.00;99625.52;109229;1273;22113;-81
2023/11/01 04:54:29;;;;;;;2.40;1.80;;;;;;;10.42;100.00;99624.97;109603;1272;21966;-80
2023/11/01 04:57:15;;;;;;;2.60;1.60;;;;;;;10.45;100.00;99619.77;109621;1269;23769;-80
2023/11/01 04:59:55;;;;;;;1.80;1.30;;;;;;;10.47;100.00;99619.13;109547;1273;21994;-82
2023/11/01 05:02:42;;;;;;;3.20;1.30;;;;;;;10.50;100.00;99624.19;109781;1272;22008;-80
2023/11/01 05:05:18;;;;;;;4.60;2.00;;;;;;;10.54;100.00;99627.17;109732;1273;23091;-80
2023/11/01 05:08:06;;;;;;;4.10;2.50;;;;;;;10.55;100.00;99626.79;110558;1262;21991;-81
2023/11/01 05:10:44;;;;;;;3.60;2.20;;;;;;;10.54;100.00;99625.05;110259;1266;23726;-82
2023/11/01 05:13:37;;;;;;;2.90;2.10;;;;;;;10.54;100.00;99629.76;110490;1266;21997;-82
2023/11/01 05:16:16;;;;;;;3.30;1.90;;;;;;;10.52;100.00;99635.09;110381;1267;21975;-80
2023/11/01 05:19:00;;;;;;;3.20;1.80;;;;;;;10.50;100.00;99639.31;110660;1262;22000;-80
2023/11/01 05:21:49;;;;;;;3.50;2.00;;;;;;;10.49;100.00;99644.77;111075;1256;22411;-80
2023/11/01 05:24:28;;;;;;;2.40;1.50;;;;;;;10.49;100.00;99644.44;111361;1256;21957;-80
2023/11/01 05:27:18;;;;;;;2.40;1.70;;;;;;;10.49;100.00;99645.46;111026;1261;23594;-82
2023/11/01 05:30:25;;;;;;;3.20;1.80;;;;;;;10.50;100.00;99650.47;110950;1261;21976;-82
2023/11/01 05:34:04;;;;;;;;;;;;;;;;;;;;;
2023/11/01 05:41:09;;;;;;;4.10;2.40;;;;;;;10.51;100.00;99659.30;110914;1255;21985;-79
2023/11/01 05:43:57;;;;;;;8.10;2.60;;;;;;;10.54;100.00;99659.17;109900;1272;22018;-80
2023/11/01 05:46:46;;;;;;;4.70;2.80;;;;;;;10.57;100.00;99663.75;109953;1270;22442;-80
2023/11/01 05:49:54;;;;;;;8.10;3.10;;;;;;;10.55;100.00;99668.36;109875;1272;23614;-81
2023/11/01 05:52:41;;;;;;;5.30;3.30;;;;;;;10.52;100.00;99674.21;109877;1272;21986;-79
2023/11/01 05:55:17;;;;;;;6.50;2.40;;;;;;;10.52;100.00;99677.70;109150;1276;21978;-80
2023/11/01 05:58:18;;;;;;;3.60;2.10;;;;;;;10.54;100.00;99686.33;109465;1273;21988;-80
2023/11/01 06:01:19;;;;;;;5.20;2.40;;;;;;;10.55;100.00;99693.05;109551;1268;21971;-79
2023/11/01 06:04:11;;;;;;;6.70;2.10;;;;;;;10.57;100.00;99697.14;109988;1268;23608;-80
2023/11/01 06:06:56;;;;;;;2.80;1.70;;;;;;;10.59;100.00;99697.71;109991;1268;22747;-79
2023/11/01 06:09:34;;;;;;;2.30;1.70;;;;;;;10.61;100.00;99697.08;110287;1264;22938;-79
2023/11/01 06:12:15;;;;;;;1.90;1.50;;;;;;;10.63;100.00;99698.77;109848;1266;21976;-79
2023/11/01 06:14:54;;;;;;;3.30;1.90;;;;;;;10.65;100.00;99699.36;110090;1266;23693;-78
2023/11/01 06:17:50;;;;;;;8.00;7.00;;;;;;;10.66;100.00;99700.20;109994;1266;21983;-77
2023/11/01 06:20:35;;;;;;;2.70;1.60;;;;;;;10.66;100.00;99706.28;109435;1263;22047;-79
2023/11/01 06:23:17;;;;;;;5.60;1.70;;;;;;;10.64;100.00;99710.37;110454;1263;22277;-80
2023/11/01 06:26:06;;;;;;;3.40;1.80;;;;;;;10.63;100.00;99712.83;110229;1263;21969;-79
2023/11/01 06:29:39;;;;;;;4.80;2.80;;;;;;;10.63;100.00;99712.48;110387;1263;22084;-81
2023/11/01 06:32:27;;;;;;;5.10;3.40;;;;;;;10.65;100.00;99712.60;110437;1263;21997;-79
2023/11/01 06:35:11;;;;;;;8.60;3.80;;;;;;;10.68;100.00;99712.59;110355;1263;23638;-79
2023/11/01 06:37:46;;;;;;;7.60;3.90;;;;;;;10.72;100.00;99716.76;109541;1263;22838;-79
2023/11/01 06:40:24;;;;;;;4.70;2.90;;;;;;;10.75;100.00;99717.14;110092;1268;23705;-79
2023/11/01 06:43:02;;;;;;;4.20;3.00;;;;;;;10.73;100.00;99713.39;109291;1274;21988;-80
2023/11/01 06:45:40;;;;;;;3.00;1.90;;;;;;;10.76;100.00;99724.41;109148;1279;23004;-79
2023/11/01 06:48:25;;;;;;;5.00;2.50;;;;;;;10.76;100.00;99731.03;108939;1279;23001;-80
2023/11/01 06:51:14;;;;;;;4.00;2.30;;;;;;;10.74;100.00;99735.11;109088;1279;22770;-82
2023/11/01 06:53:51;;;;;;;3.00;2.20;;;;;;;10.70;100.00;99731.13;108872;1279;21998;-81
2023/11/01 06:56:49;;;;;;;3.30;1.90;;;;;;;10.67;100.00;99730.41;109245;1274;22070;-81
2023/11/01 06:59:42;;;;;;;4.00;2.60;;;;;;;10.64;100.00;99722.73;109299;1274;22083;-79
2023/11/01 07:02:18;;;;;;;7.40;4.00;;;;;;;10.63;100.00;99723.95;109984;1269;23729;-81
2023/11/01 07:05:10;;;;;;;13.90;6.10;;;;;;;10.66;100.00;99724.18;110926;1257;22920;-80
2023/11/01 07:08:10;;;;;;;8.90;4.90;;;;;;;10.68;100.00;99723.71;111033;1251;23618;-79
2023/11/01 07:10:57;;;;;;;11.60;6.00;;;;;;;10.75;100.00;99726.17;111194;1257;21973;-80
2023/11/01 07:13:53;;;;;;;10.40;5.10;;;;;;;10.79;100.00;99723.57;111161;1254;23618;-80
2023/11/01 07:17:27;;;;;;;6.40;4.40;;;;;;;10.84;100.00;99726.80;111026;1257;22670;-80
2023/11/01 07:19:36;;;;;;;7.50;4.70;;;;;;;10.90;100.00;99725.13;110623;1262;22005;-81
2023/11/01 07:22:25;;;;;;;10.00;5.60;;;;;;;10.96;100.00;99728.33;110705;1263;21968;-81
2023/11/01 07:25:04;;;;;;;10.50;5.70;;;;;;;11.02;100.00;99729.75;110780;1262;23058;-78
2023/11/01 07:27:40;;;;;;;12.90;6.60;;;;;;;11.08;100.00;99730.16;110847;1262;21968;-78
2023/11/01 07:30:24;;;;;;;13.50;9.60;;;;;;;11.12;100.00;99726.29;110715;1262;22004;-77
2023/11/01 07:33:11;;;;;;;12.30;8.70;;;;;;;11.14;100.00;99723.77;110199;1267;24320;-80
2023/11/01 07:36:02;;;;;;;17.60;9.20;;;;;;;11.14;100.00;99723.22;110155;1266;22108;-79
2023/11/01 07:38:37;;;;;;;11.60;8.60;;;;;;;11.13;100.00;99722.20;109933;1266;21982;-77
2023/11/01 07:41:27;;;;;;;14.50;10.40;;;;;;;11.14;100.00;99724.28;110289;1267;21978;-82
2023/11/01 07:44:12;;;;;;;16.70;10.40;;;;;;;11.12;100.00;99726.45;110399;1266;22306;-81
2023/11/01 07:46:47;;;;;;;8.80;5.70;;;;;;;11.10;100.00;99727.60;110563;1267;23530;-78
2023/11/01 07:49:26;;;;;;;7.20;4.50;;;;;;;11.09;100.00;99728.01;109621;1272;21972;-81
2023/11/01 07:52:13;;;;;;;7.40;5.20;;;;;;;11.10;100.00;99728.16;109536;1273;22972;-80
2023/11/01 07:54:47;;;;;;;10.10;5.30;;;;;;;11.12;100.00;99726.48;109247;1276;22006;-81
2023/11/01 07:57:23;;;;;;;8.60;5.60;;;;;;;11.16;100.00;99728.67;109518;1272;21995;-79
2023/11/01 08:00:07;;;;;;;6.90;5.10;;;;;;;11.19;100.00;99733.25;109717;1270;21981;-80
2023/11/01 08:02:58;;;;;;;;;;;;;;;;;;;;;
2023/11/01 08:05:41;;;;;;;7.40;5.00;;;;;;;11.17;100.00;99740.66;109649;1271;23766;-81
2023/11/01 08:08:20;;;;;;;10.50;4.70;;;;;;;11.13;100.00;99743.64;110145;1267;21995;-80
2023/11/01 08:11:17;;;;;;;7.80;5.60;;;;;;;11.11;100.00;99747.02;110713;1263;21941;-80
2023/11/01 08:13:47;;;;;;;8.40;5.30;;;;;;;11.11;100.00;99755.39;110471;1264;21994;-80
2023/11/01 08:16:27;;;;;;;11.80;8.90;;;;;;;11.14;100.00;99750.58;110431;1264;21991;-82
2023/11/01 08:19:09;;;;;;;9.70;6.20;;;;;;;11.14;100.00;99749.50;109981;1268;22466;-82
2023/11/01 08:21:52;;;;;;;8.30;6.70;;;;;;;11.14;100.00;99749.89;110372;1267;23708;-80
2023/11/01 08:24:37;;;;;;;6.50;5.10;;;;;;;11.11;100.00;99752.81;109891;1269;22019;-80
2023/11/01 08:27:11;;;;;;;10.90;6.70;;;;;;;11.12;100.00;99755.88;109632;1270;21975;-80
2023/11/01 08:29:47;;;;;;;9.40;5.30;;;;;;;11.12;100.00;99760.61;110011;1264;21987;-80
2023/11/01 08:32:19;;;;;;;6.40;4.50;;;;;;;11.09;100.00;99763.89;110158;1266;23750;-80
2023/11/01 08:35:01;;;;;;;5.00;3.20;;;;;;;11.07;100.00;99765.91;110194;1266;21988;-81
2023/11/01 08:37:39;;;;;;;5.80;3.90;;;;;;;11.03;100.00;99766.97;110639;1261;21988;-80
2023/11/01 08:40:14;;;;;;;6.10;3.50;;;;;;;11.01;100.00;99768.80;111060;1257;22055;-79
2023/11/01 08:43:05;;;;;;;7.80;3.50;;;;;;;10.98;100.00;99772.58;111096;1257;21970;-79
2023/11/01 08:45:40;;;;;;;3.80;2.80;;;;;;;10.94;100.00;99774.36;110946;1254;22982;-80
2023/11/01 08:48:41;;;;;;;6.10;3.80;;;;;;;10.88;100.00;99773.63;110909;1257;21966;-80
2023/11/01 08:51:28;;;;;;;6.20;4.10;;;;;;;10.87;100.00;99774.84;111013;1257;22415;-81
2023/11/01 08:54:09;;;;;;;5.90;3.80;;;;;;;10.89;100.00;99775.11;111010;1257;22961;-80
2023/11/01 08:56:49;;;;;;;8.30;4.00;;;;;;;10.93;100.00;99771.98;110946;1257;21972;-81
2023/11/01 08:59:34;;;;;;;6.70;4.10;;;;;;;10.99;100.00;99771.66;111023;1257;23525;-80
2023/11/01 09:02:15;;;;;;;5.80;4.20;;;;;;;11.08;100.00;99773.69;110782;1263;22737;-80
2023/11/01 09:05:10;;;;;;;9.10;6.90;;;;;;;11.14;100.00;99774.96;110831;1263;23586;-80
2023/11/01 09:07:47;;;;;;;11.10;7.20;;;;;;;11.20;100.00;99775.86;110178;1263;23046;-79
2023/11/01 09:10:30;;;;;;;9.00;5.30;;;;;;;11.23;100.00;99775.02;109579;1273;24294;-80
2023/11/01 09:13:20;;;;;;;9.40;5.60;;;;;;;11.26;100.00;99776.05;109547;1272;23727;-80
2023/11/01 09:16:08;;;;;;;9.00;6.40;;;;;;;11.31;100.00;99783.86;109552;1273;22085;-78
2023/11/01 09:18:42;;;;;;;9.60;6.70;;;;;;;11.32;100.00;99789.55;109640;1272;22000;-80
2023/11/01 09:21:23;;;;;;;8.30;5.30;;;;;;;11.30;100.00;99791.56;110233;1264;23197;-80
2023/11/01 09:24:16;;;;;;;7.90;5.20;;;;;;;11.28;100.00;99785.05;110192;1268;21958;-80
2023/11/01 09:26:54;;;;;;;8.60;4.60;;;;;;;11.30;100.00;99783.38;110700;1262;23036;-80
2023/11/01 09:29:40;;;;;;;;;;;;;;;;;;;;;
2023/11/01 09:32:17;;;;;;;7.20;4.30;;;;;;;11.39;100.00;99762.21;110073;1269;22559;-81
2023/11/01 09:35:37;;;;;;;5.70;4.70;;;;;;;11.55;100.00;99761.39;110009;1268;23049;-82
2023/11/01 09:38:34;;;;;;;10.70;7.60;;;;;;;11.77;100.00;99775.63;109436;1273;23637;-82
2023/11/01 09:42:27;;;;;;;;;;;;;;;;;;;;;
2023/11/01 09:45:16;;;;;;;15.20;9.80;;;;;;;12.03;100.00;99770.46;108403;1289;23063;-81
2023/11/01 09:48:05;;;;;;;16.70;9.80;;;;;;;12.25;100.00;99773.28;108281;1289;22089;-80
2023/11/01 09:50:58;;;;;;;19.10;12.50;;;;;;;12.40;100.00;99774.60;108716;1283;22695;-79
2023/11/01 09:54:00;;;;;;;22.30;14.60;;;;;;;12.47;100.00;99771.23;108963;1280;24442;-80
2023/11/01 09:56:42;;;;;;;17.90;11.90;;;;;;;12.51;100.00;99768.21;108828;1283;22176;-79
2023/11/01 09:59:12;;;;;;;11.00;9.70;;;;;;;12.53;100.00;99766.70;108872;1280;22258;-83
2023/11/01 10:02:13;;;;;;;;;;;;;;;;;;;;;
2023/11/01 10:05:06;;;;;;;11.80;8.90;;;;;;;12.53;100.00;99764.64;108915;1279;22098;-81
2023/11/01 10:07:41;;;;;;;11.80;9.10;;;;;;;12.54;100.00;99759.67;108962;1279;23062;-80
2023/11/01 10:10:22;;;;;;;20.80;16.00;;;;;;;12.61;100.00;99756.67;109008;1279;22327;-81
2023/11/01 10:13:04;;;;;;;13.60;12.20;;;;;;;12.72;100.00;99763.02;109063;1279;22594;-80
2023/11/01 10:15:49;;;;;;;12.50;10.20;;;;;;;12.79;100.00;99766.29;109594;1271;21996;-80
2023/11/01 10:18:31;;;;;;;12.40;9.60;;;;;;;12.83;100.00;99770.98;109711;1272;23762;-79
2023/11/01 10:21:07;;;;;;;13.30;9.80;;;;;;;12.84;100.00;99769.66;110244;1257;23710;-81
2023/11/01 10:23:43;;;;;;;13.80;9.90;;;;;;;12.85;100.00;99768.56;110985;1257;22090;-79
2023/11/01 10:26:30;;;;;;;15.40;9.60;;;;;;;12.86;100.00;99764.01;110206;1264;22978;-80
2023/11/01 10:29:16;;;;;;;12.00;9.50;;;;;;;12.86;100.00;99761.21;110126;1268;23699;-81
2023/11/01 10:32:02;;;;;;;11.70;9.00;;;;;;;12.86;100.00;99758.77;109892;1268;22010;-80
2023/11/01 10:34:47;;;;;;;11.00;9.20;;;;;;;12.87;100.00;99756.40;110260;1266;21987;-80
2023/11/01 10:37:32;;;;;;;12.90;9.60;;;;;;;12.91;100.00;99754.13;109991;1268;21999;-80
2023/11/01 10:40:14;;;;;;;14.60;9.90;;;;;;;12.98;100.00;99758.61;109525;1268;21973;-79
2023/11/01 10:43:08;;;;;;;14.50;10.90;;;;;;;13.04;100.00;99756.66;110131;1268;22989;-81
2023/11/01 10:45:57;;;;;;;13.00;11.60;;;;;;;13.06;100.00;99759.89;110708;1262;21964;-79
2023/11/01 10:48:47;;;;;;;22.60;15.50;;;;;;;13.13;100.00;99756.00;111283;1257;22081;-81
2023/11/01 10:51:42;;;;;;;16.90;13.20;;;;;;;13.24;100.00;99753.27;111254;1257;21983;-80
2023/11/01 10:54:20;;;;;;;17.20;13.10;;;;;;;13.40;100.00;99748.69;111066;1257;23707;-80
2023/11/01 10:57:23;;;;;;;14.50;12.00;;;;;;;13.56;100.00;99741.60;111232;1247;21968;-80
2023/11/01 11:00:05;;;;;;;22.00;11.30;;;;;;;13.75;100.00;99739.61;111050;1257;23640;-80
2023/11/01 11:02:59;;;;;;;13.20;9.80;;;;;;;13.85;100.00;99737.98;111112;1257;22738;-81
2023/11/01 11:05:57;;;;;;;13.20;9.70;;;;;;;13.84;100.00;99737.67;111073;1257;23620;-80
2023/11/01 11:09:23;;;;;;;18.00;10.40;;;;;;;13.90;100.00;99736.10;111064;1257;22106;-80
2023/11/01 11:12:24;;;;;;;10.30;9.10;;;;;;;13.97;100.00;99739.34;110879;1257;21989;-79
2023/11/01 11:15:14;;;;;;;12.00;10.40;;;;;;;14.07;100.00;99733.96;110610;1263;22000;-79
2023/11/01 11:18:24;;;;;;;12.90;8.90;;;;;;;14.20;100.00;99733.00;110596;1263;23714;-80
2023/11/01 11:21:06;;;;;;;11.60;9.40;;;;;;;14.33;100.00;99736.92;109973;1268;23673;-80
2023/11/01 11:24:57;;;;;;;14.30;9.70;;;;;;;14.39;100.00;99734.44;109651;1262;21980;-78
2023/11/01 11:27:47;;;;;;;;;;;;;;;14.41;100.00;99732.02;109308;1281;21991;-79
2023/11/01 11:31:15;;;;;;;11.30;7.30;;;;;;;14.34;100.00;99731.45;109027;1282;21997;-80
2023/11/01 11:34:15;;;;;;;8.10;6.70;;;;;;;14.37;100.00;99728.09;109914;1278;21962;-80
2023/11/01 11:37:21;;;;;;;;;;;;;;;;;;;;;
2023/11/01 11:40:10;;;;;;;17.00;10.10;;;;;;;14.49;100.00;99723.66;109134;1277;23715;-80
2023/11/01 11:43:07;;;;;;;;;;;;;;;14.56;100.00;99728.63;108882;1278;21988;-79
2023/11/01 11:46:14;;;;;;;12.60;7.00;;;;;;;14.44;100.00;99721.31;108796;1282;23777;-80
2023/11/01 11:48:58;;;;;;;10.90;7.10;;;;;;;14.46;100.00;99723.67;108746;1282;22610;-78
2023/11/01 11:51:36;;;;;;;10.30;7.40;;;;;;;14.44;100.00;99721.17;108716;1279;22004;-79
2023/11/01 11:54:33;;;;;;;17.80;10.20;;;;;;;14.40;100.00;99718.61;108618;1273;23745;-80
2023/11/01 11:57:13;;;;;;;8.20;5.60;;;;;;;14.43;100.00;99713.00;108764;1283;22998;-79
2023/11/01 12:00:17;;;;;;;6.00;5.40;;;;;;;14.48;100.00;99710.25;109227;1271;23724;-81
2023/11/01 12:03:17;;;;;;;9.70;5.80;;;;;;;14.50;100.00;99708.38;109776;1264;22745;-79
2023/11/01 12:07:04;;;;;;;10.50;5.30;;;;;;;14.51;100.00;99696.77;110201;1268;23765;-79
2023/11/01 12:10:00;;;;;;;7.10;5.50;;;;;;;14.66;100.00;99705.58;109899;1265;23046;-80
2023/11/01 12:16:35;;;;;;;8.30;5.10;;;;;;;14.82;100.00;99696.81;109391;1273;22765;-79
2023/11/01 12:19:30;;;;;;;7.40;5.70;;;;;;;14.89;100.00;99694.50;109660;1257;22023;-81
2023/11/01 12:22:44;;;;;;;12.50;7.60;;;;;;;14.92;100.00;99690.42;109988;1270;23627;-78
2023/11/01 12:25:29;;;;;;;9.90;6.10;;;;;;;14.91;100.00;99688.20;109517;1271;22095;-78
2023/11/01 12:28:25;;;;;;;7.00;5.20;;;;;;;14.88;100.00;99686.96;109129;1272;22300;-79
2023/11/01 12:31:27;;;;;;;17.00;15.20;;;;;;;14.87;100.00;99687.44;109373;1274;22007;-77
2023/11/01 12:34:27;;;;;;;14.20;10.80;;;;;;;14.89;100.00;99682.34;109423;1268;22020;-79
2023/11/01 12:37:23;;;;;;;12.70;5.90;;;;;;;14.96;100.00;99682.11;109260;1267;24388;-80
2023/11/01 12:40:12;;;;;;;6.80;4.60;;;;;;;14.97;100.00;99681.48;109264;1276;22009;-80
2023/11/01 12:43:26;;;;;;;9.30;6.60;;;;;;;14.97;100.00;99677.12;109217;1276;21980;-78
2023/11/01 12:46:24;;;;;;;10.00;8.10;;;;;;;14.98;100.00;99673.73;109480;1266;23652;-81
2023/11/01 12:49:10;;;;;;;15.20;8.10;;;;;;;14.98;100.00;99671.80;109686;1269;22747;-80
2023/11/01 12:51:55;;;;;;;12.50;8.70;;;;;;;14.94;100.00;99669.05;110137;1270;23055;-80
2023/11/01 12:55:15;;;;;;;10.30;6.40;;;;;;;14.84;100.00;99665.73;109773;1270;24299;-81
2023/11/01 12:58:07;;;;;;;26.30;20.00;;;;;;;14.82;100.00;99666.57;109870;1270;21979;-81
2023/11/01 13:00:53;;;;;;;54.90;38.10;;;;;;;14.87;100.00;99667.80;109599;1269;21993;-80
2023/11/01 13:03:45;;;;;;;25.00;18.90;;;;;;;14.86;100.00;99669.25;109697;1267;21977;-80
2023/11/01 13:06:48;;;;;;;;;;;;;;;;;;;;;
2023/11/01 13:09:30;;;;;;;48.10;38.30;;;;;;;14.86;100.00;99674.05;110404;1263;21994;-80
2023/11/01 13:12:08;;;;;;;21.70;18.60;;;;;;;14.83;100.00;99676.48;109832;1265;21978;-81
2023/11/01 13:14:40;;;;;;;11.80;8.40;;;;;;;14.77;100.00;99672.63;109594;1272;21992;-81
2023/11/01 13:17:15;;;;;;;9.60;6.90;;;;;;;14.71;100.00;99676.70;109655;1271;23713;-82
2023/11/01 13:19:53;;;;;;;12.00;7.10;;;;;;;14.64;100.00;99671.75;109291;1268;22002;-80